Aviation Digital Data Service (ADDS)

Output produced by METARs form (0043 UTC 17 January 2017)
found at http://aviationweather.gov/adds/metars/
 
KRDU 162336Z 1700/1724 VRB03KT P6SM BKN015 OVC250 
     TEMPO 1701/1705 OVC008 
     FM170500 00000KT 4SM BR OVC003 
     TEMPO 1714/1718 P6SM NSW OVC008 
     FM171800 22010G16KT P6SM OVC012 
     FM172000 23012G18KT P6SM BKN020 
     TEMPO 1720/1724 SCT025